Terminal Aerodrome Forecast
Issued by NWS Knoxville/Tri Cities, TN

Home | Current Version | Previous Version | Text Only | Print | Product List | Glossary On
Versions: 1 2 3 4 5 6 7 8 9 10 11 12 13 14 15 16 17 18 19 20 21 22 23 24 25 26 27 28
000
FTUS44 KMRX 291734
TAFTRI
TAF
KTRI 291734Z 2918/3018 23004KT P6SM BKN060 BKN120
     FM292100 25008KT P6SM BKN045 BKN080
     FM300600 26009KT 4SM -RASN OVC030
     FM301500 27010KT P6SM BKN035=

USA.gov is the U.S. government's official web portal to all federal, state and local government web resources and services.